sensor_id;sensor_type;location;lat;lon;timestamp;P1;durP1;ratioP1;P2;durP2;ratioP2
51495;SDS011;37572;52.094;4.870;2022-07-24T00:00:04;27.98;;;25.05;;
51495;SDS011;37572;52.094;4.870;2022-07-24T00:02:30;27.38;;;24.83;;
51495;SDS011;37572;52.094;4.870;2022-07-24T00:04:56;29.55;;;24.08;;
51495;SDS011;37572;52.094;4.870;2022-07-24T00:07:21;26.42;;;23.80;;
51495;SDS011;37572;52.094;4.870;2022-07-24T00:09:47;27.98;;;25.02;;
51495;SDS011;37572;52.094;4.870;2022-07-24T00:12:12;30.02;;;26.45;;
51495;SDS011;37572;52.094;4.870;2022-07-24T00:14:38;32.45;;;29.17;;
51495;SDS011;37572;52.094;4.870;2022-07-24T00:17:03;37.28;;;33.17;;
51495;SDS011;37572;52.094;4.870;2022-07-24T00:19:28;47.63;;;38.53;;
51495;SDS011;37572;52.094;4.870;2022-07-24T00:21:54;45.40;;;40.58;;
51495;SDS011;37572;52.094;4.870;2022-07-24T00:24:19;44.38;;;39.88;;
51495;SDS011;37572;52.094;4.870;2022-07-24T00:26:44;47.65;;;42.15;;
51495;SDS011;37572;52.094;4.870;2022-07-24T00:29:10;48.42;;;42.28;;
51495;SDS011;37572;52.094;4.870;2022-07-24T00:31:35;43.13;;;38.83;;
51495;SDS011;37572;52.094;4.870;2022-07-24T00:34:00;47.80;;;40.60;;
51495;SDS011;37572;52.094;4.870;2022-07-24T00:36:26;45.28;;;40.55;;
51495;SDS011;37572;52.094;4.870;2022-07-24T00:38:51;45.33;;;40.35;;
51495;SDS011;37572;52.094;4.870;2022-07-24T00:41:16;42.63;;;38.05;;
51495;SDS011;37572;52.094;4.870;2022-07-24T00:43:58;44.38;;;39.67;;
51495;SDS011;37572;52.094;4.870;2022-07-24T00:46:27;41.40;;;37.10;;
51495;SDS011;37572;52.094;4.870;2022-07-24T00:48:53;38.83;;;34.92;;
51495;SDS011;37572;52.094;4.870;2022-07-24T00:51:19;38.10;;;34.05;;
51495;SDS011;37572;52.094;4.870;2022-07-24T00:53:44;34.55;;;30.83;;
51495;SDS011;37572;52.094;4.870;2022-07-24T00:56:09;35.63;;;31.83;;
51495;SDS011;37572;52.094;4.870;2022-07-24T00:58:35;34.58;;;29.95;;
51495;SDS011;37572;52.094;4.870;2022-07-24T01:01:00;30.80;;;27.55;;
51495;SDS011;37572;52.094;4.870;2022-07-24T01:03:25;32.15;;;28.73;;
51495;SDS011;37572;52.094;4.870;2022-07-24T01:05:51;34.53;;;31.00;;
51495;SDS011;37572;52.094;4.870;2022-07-24T01:08:16;33.65;;;30.08;;
51495;SDS011;37572;52.094;4.870;2022-07-24T01:10:42;33.97;;;30.58;;
51495;SDS011;37572;52.094;4.870;2022-07-24T01:13:07;33.63;;;30.08;;
51495;SDS011;37572;52.094;4.870;2022-07-24T01:15:33;35.45;;;31.73;;
51495;SDS011;37572;52.094;4.870;2022-07-24T01:17:58;35.08;;;31.48;;
51495;SDS011;37572;52.094;4.870;2022-07-24T01:20:24;35.72;;;31.88;;
51495;SDS011;37572;52.094;4.870;2022-07-24T01:22:49;34.65;;;31.25;;
51495;SDS011;37572;52.094;4.870;2022-07-24T01:25:14;35.03;;;31.30;;
51495;SDS011;37572;52.094;4.870;2022-07-24T01:27:40;36.95;;;33.03;;
51495;SDS011;37572;52.094;4.870;2022-07-24T01:30:05;38.40;;;33.13;;
51495;SDS011;37572;52.094;4.870;2022-07-24T01:32:31;36.90;;;32.83;;
51495;SDS011;37572;52.094;4.870;2022-07-24T01:34:56;35.08;;;31.23;;
51495;SDS011;37572;52.094;4.870;2022-07-24T01:37:22;37.40;;;33.30;;
51495;SDS011;37572;52.094;4.870;2022-07-24T01:39:47;41.25;;;34.88;;
51495;SDS011;37572;52.094;4.870;2022-07-24T01:42:13;36.33;;;30.83;;
51495;SDS011;37572;52.094;4.870;2022-07-24T01:44:38;39.88;;;35.53;;
51495;SDS011;37572;52.094;4.870;2022-07-24T01:47:03;40.80;;;36.40;;
51495;SDS011;37572;52.094;4.870;2022-07-24T01:49:29;38.97;;;33.40;;
51495;SDS011;37572;52.094;4.870;2022-07-24T01:51:54;46.95;;;39.63;;
51495;SDS011;37572;52.094;4.870;2022-07-24T01:54:19;45.47;;;40.40;;
51495;SDS011;37572;52.094;4.870;2022-07-24T01:56:45;42.65;;;38.05;;
51495;SDS011;37572;52.094;4.870;2022-07-24T01:59:10;41.67;;;37.30;;
51495;SDS011;37572;52.094;4.870;2022-07-24T02:01:35;47.03;;;40.05;;
51495;SDS011;37572;52.094;4.870;2022-07-24T02:04:01;44.67;;;39.85;;
51495;SDS011;37572;52.094;4.870;2022-07-24T02:06:26;44.20;;;39.40;;
51495;SDS011;37572;52.094;4.870;2022-07-24T02:08:51;44.55;;;38.13;;
51495;SDS011;37572;52.094;4.870;2022-07-24T02:11:17;41.90;;;37.33;;
51495;SDS011;37572;52.094;4.870;2022-07-24T02:13:43;47.53;;;38.80;;
51495;SDS011;37572;52.094;4.870;2022-07-24T02:16:10;45.97;;;38.95;;
51495;SDS011;37572;52.094;4.870;2022-07-24T02:18:35;48.88;;;37.85;;
51495;SDS011;37572;52.094;4.870;2022-07-24T02:21:01;43.17;;;37.80;;
51495;SDS011;37572;52.094;4.870;2022-07-24T02:23:26;46.30;;;35.75;;
51495;SDS011;37572;52.094;4.870;2022-07-24T02:25:52;43.35;;;36.42;;
51495;SDS011;37572;52.094;4.870;2022-07-24T02:28:17;40.28;;;35.83;;
51495;SDS011;37572;52.094;4.870;2022-07-24T02:30:43;41.85;;;35.15;;
51495;SDS011;37572;52.094;4.870;2022-07-24T02:33:10;48.58;;;38.10;;
51495;SDS011;37572;52.094;4.870;2022-07-24T02:35:36;43.08;;;35.85;;
51495;SDS011;37572;52.094;4.870;2022-07-24T02:38:02;46.33;;;36.10;;
51495;SDS011;37572;52.094;4.870;2022-07-24T02:40:27;42.00;;;35.90;;
51495;SDS011;37572;52.094;4.870;2022-07-24T02:42:53;40.38;;;33.97;;
51495;SDS011;37572;52.094;4.870;2022-07-24T02:45:18;45.05;;;36.00;;
51495;SDS011;37572;52.094;4.870;2022-07-24T02:47:48;39.97;;;33.92;;
51495;SDS011;37572;52.094;4.870;2022-07-24T02:50:15;43.60;;;32.58;;
51495;SDS011;37572;52.094;4.870;2022-07-24T02:52:42;41.88;;;34.30;;
51495;SDS011;37572;52.094;4.870;2022-07-24T02:55:08;38.78;;;31.55;;
51495;SDS011;37572;52.094;4.870;2022-07-24T02:57:33;38.92;;;32.15;;
51495;SDS011;37572;52.094;4.870;2022-07-24T02:59:58;40.33;;;30.77;;
51495;SDS011;37572;52.094;4.870;2022-07-24T03:02:24;37.47;;;30.60;;
51495;SDS011;37572;52.094;4.870;2022-07-24T03:04:49;35.38;;;30.02;;
51495;SDS011;37572;52.094;4.870;2022-07-24T03:07:15;36.20;;;32.25;;
51495;SDS011;37572;52.094;4.870;2022-07-24T03:09:40;39.40;;;29.90;;
51495;SDS011;37572;52.094;4.870;2022-07-24T03:12:05;35.78;;;30.75;;
51495;SDS011;37572;52.094;4.870;2022-07-24T03:14:31;42.67;;;30.63;;
51495;SDS011;37572;52.094;4.870;2022-07-24T03:16:56;38.60;;;30.63;;
51495;SDS011;37572;52.094;4.870;2022-07-24T03:19:21;36.53;;;30.17;;
51495;SDS011;37572;52.094;4.870;2022-07-24T03:21:47;39.25;;;32.00;;
51495;SDS011;37572;52.094;4.870;2022-07-24T03:24:12;40.97;;;31.23;;
51495;SDS011;37572;52.094;4.870;2022-07-24T03:26:37;36.78;;;31.10;;
51495;SDS011;37572;52.094;4.870;2022-07-24T03:29:03;40.72;;;31.45;;
51495;SDS011;37572;52.094;4.870;2022-07-24T03:31:28;42.33;;;31.33;;
51495;SDS011;37572;52.094;4.870;2022-07-24T03:33:53;41.17;;;33.22;;
51495;SDS011;37572;52.094;4.870;2022-07-24T03:36:19;43.28;;;34.08;;
51495;SDS011;37572;52.094;4.870;2022-07-24T03:38:44;40.13;;;32.45;;
51495;SDS011;37572;52.094;4.870;2022-07-24T03:41:09;42.10;;;33.40;;
51495;SDS011;37572;52.094;4.870;2022-07-24T03:43:35;45.15;;;33.88;;
51495;SDS011;37572;52.094;4.870;2022-07-24T03:46:00;41.53;;;32.85;;
51495;SDS011;37572;52.094;4.870;2022-07-24T03:48:25;45.53;;;33.03;;
51495;SDS011;37572;52.094;4.870;2022-07-24T03:50:51;45.38;;;34.03;;
51495;SDS011;37572;52.094;4.870;2022-07-24T03:53:16;41.75;;;30.63;;
51495;SDS011;37572;52.094;4.870;2022-07-24T03:55:41;43.17;;;31.33;;
51495;SDS011;37572;52.094;4.870;2022-07-24T03:58:06;40.65;;;30.20;;
51495;SDS011;37572;52.094;4.870;2022-07-24T04:00:32;39.67;;;28.48;;
51495;SDS011;37572;52.094;4.870;2022-07-24T04:02:57;35.85;;;26.95;;
51495;SDS011;37572;52.094;4.870;2022-07-24T04:05:22;31.88;;;24.58;;
51495;SDS011;37572;52.094;4.870;2022-07-24T04:07:48;30.50;;;23.73;;
51495;SDS011;37572;52.094;4.870;2022-07-24T04:10:13;31.83;;;23.80;;
51495;SDS011;37572;52.094;4.870;2022-07-24T04:12:38;31.67;;;23.17;;
51495;SDS011;37572;52.094;4.870;2022-07-24T04:15:04;31.73;;;22.15;;
51495;SDS011;37572;52.094;4.870;2022-07-24T04:17:29;27.17;;;21.17;;
51495;SDS011;37572;52.094;4.870;2022-07-24T04:19:55;28.85;;;20.95;;
51495;SDS011;37572;52.094;4.870;2022-07-24T04:22:20;26.88;;;19.33;;
51495;SDS011;37572;52.094;4.870;2022-07-24T04:24:45;22.83;;;18.98;;
51495;SDS011;37572;52.094;4.870;2022-07-24T04:27:10;25.70;;;17.55;;
51495;SDS011;37572;52.094;4.870;2022-07-24T04:29:36;25.23;;;17.05;;
51495;SDS011;37572;52.094;4.870;2022-07-24T04:32:01;27.63;;;16.63;;
51495;SDS011;37572;52.094;4.870;2022-07-24T04:34:26;23.30;;;16.13;;
51495;SDS011;37572;52.094;4.870;2022-07-24T04:36:52;18.42;;;14.75;;
51495;SDS011;37572;52.094;4.870;2022-07-24T04:39:17;24.42;;;15.40;;
51495;SDS011;37572;52.094;4.870;2022-07-24T04:41:42;23.33;;;16.30;;
51495;SDS011;37572;52.094;4.870;2022-07-24T04:44:08;22.70;;;16.60;;
51495;SDS011;37572;52.094;4.870;2022-07-24T04:46:33;20.73;;;15.73;;
51495;SDS011;37572;52.094;4.870;2022-07-24T04:48:58;27.08;;;19.08;;
51495;SDS011;37572;52.094;4.870;2022-07-24T04:51:25;25.98;;;18.60;;
51495;SDS011;37572;52.094;4.870;2022-07-24T04:53:50;24.02;;;17.85;;
51495;SDS011;37572;52.094;4.870;2022-07-24T04:56:19;23.20;;;18.50;;
51495;SDS011;37572;52.094;4.870;2022-07-24T04:58:45;26.30;;;17.15;;
51495;SDS011;37572;52.094;4.870;2022-07-24T05:01:11;21.58;;;16.73;;
51495;SDS011;37572;52.094;4.870;2022-07-24T05:03:36;24.40;;;16.02;;
51495;SDS011;37572;52.094;4.870;2022-07-24T05:06:01;21.13;;;15.25;;
51495;SDS011;37572;52.094;4.870;2022-07-24T05:08:27;20.70;;;15.70;;
51495;SDS011;37572;52.094;4.870;2022-07-24T05:10:52;17.00;;;14.95;;
51495;SDS011;37572;52.094;4.870;2022-07-24T05:13:18;18.75;;;14.60;;
51495;SDS011;37572;52.094;4.870;2022-07-24T05:15:43;20.70;;;15.40;;
51495;SDS011;37572;52.094;4.870;2022-07-24T05:18:08;24.30;;;14.88;;
51495;SDS011;37572;52.094;4.870;2022-07-24T05:20:34;19.13;;;13.75;;
51495;SDS011;37572;52.094;4.870;2022-07-24T05:22:59;25.48;;;16.02;;
51495;SDS011;37572;52.094;4.870;2022-07-24T05:25:24;24.00;;;15.00;;
51495;SDS011;37572;52.094;4.870;2022-07-24T05:27:50;20.48;;;15.07;;
51495;SDS011;37572;52.094;4.870;2022-07-24T05:30:16;18.17;;;14.10;;
51495;SDS011;37572;52.094;4.870;2022-07-24T05:32:41;18.33;;;13.98;;
51495;SDS011;37572;52.094;4.870;2022-07-24T05:35:06;17.63;;;13.38;;
51495;SDS011;37572;52.094;4.870;2022-07-24T05:37:32;16.92;;;12.68;;
51495;SDS011;37572;52.094;4.870;2022-07-24T05:39:57;15.73;;;12.50;;
51495;SDS011;37572;52.094;4.870;2022-07-24T05:42:23;17.08;;;11.48;;
51495;SDS011;37572;52.094;4.870;2022-07-24T05:44:48;16.98;;;12.48;;
51495;SDS011;37572;52.094;4.870;2022-07-24T05:47:13;17.88;;;12.15;;
51495;SDS011;37572;52.094;4.870;2022-07-24T05:49:40;12.65;;;10.48;;
51495;SDS011;37572;52.094;4.870;2022-07-24T05:52:05;15.80;;;9.90;;
51495;SDS011;37572;52.094;4.870;2022-07-24T05:54:30;16.27;;;9.85;;
51495;SDS011;37572;52.094;4.870;2022-07-24T05:56:56;11.93;;;9.45;;
51495;SDS011;37572;52.094;4.870;2022-07-24T05:59:21;13.50;;;10.18;;
51495;SDS011;37572;52.094;4.870;2022-07-24T06:01:46;11.70;;;8.80;;
51495;SDS011;37572;52.094;4.870;2022-07-24T06:04:12;11.07;;;8.20;;
51495;SDS011;37572;52.094;4.870;2022-07-24T06:06:37;8.93;;;7.82;;
51495;SDS011;37572;52.094;4.870;2022-07-24T06:09:03;7.60;;;6.70;;
51495;SDS011;37572;52.094;4.870;2022-07-24T06:11:29;8.82;;;6.72;;
51495;SDS011;37572;52.094;4.870;2022-07-24T06:13:55;8.77;;;6.05;;
51495;SDS011;37572;52.094;4.870;2022-07-24T06:16:20;8.48;;;6.28;;
51495;SDS011;37572;52.094;4.870;2022-07-24T06:18:45;6.35;;;5.15;;
51495;SDS011;37572;52.094;4.870;2022-07-24T06:21:11;9.15;;;5.40;;
51495;SDS011;37572;52.094;4.870;2022-07-24T06:23:36;6.18;;;4.60;;
51495;SDS011;37572;52.094;4.870;2022-07-24T06:26:01;7.13;;;4.38;;
51495;SDS011;37572;52.094;4.870;2022-07-24T06:28:27;5.38;;;4.15;;
51495;SDS011;37572;52.094;4.870;2022-07-24T06:30:53;4.03;;;3.63;;
51495;SDS011;37572;52.094;4.870;2022-07-24T06:33:18;4.05;;;3.40;;
51495;SDS011;37572;52.094;4.870;2022-07-24T06:35:43;5.55;;;3.78;;
51495;SDS011;37572;52.094;4.870;2022-07-24T06:38:09;3.85;;;2.83;;
51495;SDS011;37572;52.094;4.870;2022-07-24T06:40:35;5.85;;;3.72;;
51495;SDS011;37572;52.094;4.870;2022-07-24T06:43:02;3.85;;;3.35;;
51495;SDS011;37572;52.094;4.870;2022-07-24T06:45:27;4.80;;;3.25;;
51495;SDS011;37572;52.094;4.870;2022-07-24T06:47:52;4.07;;;3.40;;
51495;SDS011;37572;52.094;4.870;2022-07-24T06:50:18;10.02;;;4.00;;
51495;SDS011;37572;52.094;4.870;2022-07-24T06:52:43;6.50;;;2.90;;
51495;SDS011;37572;52.094;4.870;2022-07-24T06:55:10;4.57;;;3.33;;
51495;SDS011;37572;52.094;4.870;2022-07-24T06:57:36;3.90;;;3.50;;
51495;SDS011;37572;52.094;4.870;2022-07-24T07:00:02;8.77;;;3.47;;
51495;SDS011;37572;52.094;4.870;2022-07-24T07:02:30;4.90;;;3.10;;
51495;SDS011;37572;52.094;4.870;2022-07-24T07:04:56;5.35;;;2.90;;
51495;SDS011;37572;52.094;4.870;2022-07-24T07:07:21;4.03;;;2.97;;
51495;SDS011;37572;52.094;4.870;2022-07-24T07:09:46;3.85;;;3.10;;
51495;SDS011;37572;52.094;4.870;2022-07-24T07:12:12;3.13;;;2.50;;
51495;SDS011;37572;52.094;4.870;2022-07-24T07:14:37;6.38;;;2.80;;
51495;SDS011;37572;52.094;4.870;2022-07-24T07:17:02;4.97;;;3.17;;
51495;SDS011;37572;52.094;4.870;2022-07-24T07:19:28;6.40;;;3.50;;
51495;SDS011;37572;52.094;4.870;2022-07-24T07:21:53;5.30;;;3.00;;
51495;SDS011;37572;52.094;4.870;2022-07-24T07:24:18;5.15;;;2.55;;
51495;SDS011;37572;52.094;4.870;2022-07-24T07:26:44;3.97;;;2.83;;
51495;SDS011;37572;52.094;4.870;2022-07-24T07:29:09;4.25;;;2.15;;
51495;SDS011;37572;52.094;4.870;2022-07-24T07:31:35;3.90;;;2.90;;
51495;SDS011;37572;52.094;4.870;2022-07-24T07:34:00;3.55;;;2.70;;
51495;SDS011;37572;52.094;4.870;2022-07-24T07:36:25;6.20;;;2.88;;
51495;SDS011;37572;52.094;4.870;2022-07-24T07:38:51;4.65;;;2.72;;
51495;SDS011;37572;52.094;4.870;2022-07-24T07:41:16;6.85;;;3.03;;
51495;SDS011;37572;52.094;4.870;2022-07-24T07:43:44;4.25;;;3.33;;
51495;SDS011;37572;52.094;4.870;2022-07-24T07:46:12;4.55;;;2.70;;
51495;SDS011;37572;52.094;4.870;2022-07-24T07:48:37;4.13;;;3.20;;
51495;SDS011;37572;52.094;4.870;2022-07-24T07:51:03;3.50;;;3.20;;
51495;SDS011;37572;52.094;4.870;2022-07-24T07:53:28;3.95;;;2.70;;
51495;SDS011;37572;52.094;4.870;2022-07-24T07:55:53;8.38;;;3.17;;
51495;SDS011;37572;52.094;4.870;2022-07-24T07:58:19;4.78;;;3.03;;
51495;SDS011;37572;52.094;4.870;2022-07-24T08:00:44;8.48;;;2.47;;
51495;SDS011;37572;52.094;4.870;2022-07-24T08:03:10;3.65;;;2.80;;
51495;SDS011;37572;52.094;4.870;2022-07-24T08:05:35;3.33;;;2.60;;
51495;SDS011;37572;52.094;4.870;2022-07-24T08:08:00;3.25;;;2.47;;
51495;SDS011;37572;52.094;4.870;2022-07-24T08:10:26;3.42;;;2.53;;
51495;SDS011;37572;52.094;4.870;2022-07-24T08:12:51;7.80;;;3.05;;
51495;SDS011;37572;52.094;4.870;2022-07-24T08:15:17;3.55;;;2.80;;
51495;SDS011;37572;52.094;4.870;2022-07-24T08:17:42;4.45;;;2.50;;
51495;SDS011;37572;52.094;4.870;2022-07-24T08:20:08;2.90;;;2.50;;
51495;SDS011;37572;52.094;4.870;2022-07-24T08:22:34;4.60;;;3.13;;
51495;SDS011;37572;52.094;4.870;2022-07-24T08:24:59;5.25;;;2.72;;
51495;SDS011;37572;52.094;4.870;2022-07-24T08:27:25;5.88;;;2.50;;
51495;SDS011;37572;52.094;4.870;2022-07-24T08:29:50;2.42;;;2.10;;
51495;SDS011;37572;52.094;4.870;2022-07-24T08:32:15;2.47;;;2.28;;
51495;SDS011;37572;52.094;4.870;2022-07-24T08:34:42;7.55;;;2.40;;
51495;SDS011;37572;52.094;4.870;2022-07-24T08:37:07;8.20;;;2.53;;
51495;SDS011;37572;52.094;4.870;2022-07-24T08:39:32;3.67;;;2.53;;
51495;SDS011;37572;52.094;4.870;2022-07-24T08:41:58;2.88;;;2.35;;
51495;SDS011;37572;52.094;4.870;2022-07-24T08:44:23;3.58;;;2.67;;
51495;SDS011;37572;52.094;4.870;2022-07-24T08:46:48;5.90;;;2.50;;
51495;SDS011;37572;52.094;4.870;2022-07-24T08:49:15;3.40;;;2.80;;
51495;SDS011;37572;52.094;4.870;2022-07-24T08:51:41;4.75;;;2.50;;
51495;SDS011;37572;52.094;4.870;2022-07-24T08:54:09;4.07;;;2.30;;
51495;SDS011;37572;52.094;4.870;2022-07-24T08:56:37;3.00;;;2.60;;
51495;SDS011;37572;52.094;4.870;2022-07-24T08:59:04;7.47;;;3.08;;
51495;SDS011;37572;52.094;4.870;2022-07-24T09:01:30;3.88;;;2.30;;
51495;SDS011;37572;52.094;4.870;2022-07-24T09:03:55;3.42;;;2.15;;
51495;SDS011;37572;52.094;4.870;2022-07-24T09:06:20;3.20;;;2.25;;
51495;SDS011;37572;52.094;4.870;2022-07-24T09:08:56;3.15;;;2.40;;
51495;SDS011;37572;52.094;4.870;2022-07-24T09:11:24;4.68;;;2.45;;
51495;SDS011;37572;52.094;4.870;2022-07-24T09:13:52;6.03;;;2.28;;
51495;SDS011;37572;52.094;4.870;2022-07-24T09:16:36;2.47;;;2.28;;
51495;SDS011;37572;52.094;4.870;2022-07-24T09:19:06;3.70;;;2.72;;
51495;SDS011;37572;52.094;4.870;2022-07-24T09:21:33;2.45;;;1.98;;
51495;SDS011;37572;52.094;4.870;2022-07-24T09:24:11;2.47;;;2.20;;
51495;SDS011;37572;52.094;4.870;2022-07-24T09:26:44;3.88;;;2.38;;
51495;SDS011;37572;52.094;4.870;2022-07-24T09:29:12;5.03;;;2.80;;
51495;SDS011;37572;52.094;4.870;2022-07-24T09:34:24;4.55;;;2.33;;
51495;SDS011;37572;52.094;4.870;2022-07-24T09:36:57;4.32;;;2.55;;
51495;SDS011;37572;52.094;4.870;2022-07-24T09:39:28;5.25;;;2.13;;
51495;SDS011;37572;52.094;4.870;2022-07-24T09:41:54;4.05;;;2.55;;
51495;SDS011;37572;52.094;4.870;2022-07-24T09:44:21;3.53;;;2.15;;
51495;SDS011;37572;52.094;4.870;2022-07-24T09:46:53;2.85;;;1.92;;
51495;SDS011;37572;52.094;4.870;2022-07-24T09:49:23;2.38;;;2.13;;
51495;SDS011;37572;52.094;4.870;2022-07-24T09:54:33;3.83;;;2.30;;
51495;SDS011;37572;52.094;4.870;2022-07-24T09:59:59;2.40;;;2.20;;
51495;SDS011;37572;52.094;4.870;2022-07-24T10:02:26;3.05;;;2.20;;
51495;SDS011;37572;52.094;4.870;2022-07-24T10:04:54;2.75;;;2.40;;
51495;SDS011;37572;52.094;4.870;2022-07-24T10:07:22;5.63;;;2.50;;
51495;SDS011;37572;52.094;4.870;2022-07-24T10:09:50;4.07;;;2.88;;
51495;SDS011;37572;52.094;4.870;2022-07-24T10:12:18;4.50;;;2.45;;
51495;SDS011;37572;52.094;4.870;2022-07-24T10:14:45;2.63;;;2.38;;
51495;SDS011;37572;52.094;4.870;2022-07-24T10:17:12;4.95;;;2.22;;
51495;SDS011;37572;52.094;4.870;2022-07-24T10:19:40;2.47;;;2.28;;
51495;SDS011;37572;52.094;4.870;2022-07-24T10:22:11;5.47;;;1.88;;
51495;SDS011;37572;52.094;4.870;2022-07-24T10:24:55;3.00;;;2.20;;
51495;SDS011;37572;52.094;4.870;2022-07-24T10:27:36;8.35;;;2.67;;
51495;SDS011;37572;52.094;4.870;2022-07-24T10:30:04;3.35;;;2.05;;
51495;SDS011;37572;52.094;4.870;2022-07-24T10:32:32;3.25;;;2.28;;
51495;SDS011;37572;52.094;4.870;2022-07-24T10:38:12;2.30;;;2.10;;
51495;SDS011;37572;52.094;4.870;2022-07-24T10:40:49;3.25;;;2.55;;
51495;SDS011;37572;52.094;4.870;2022-07-24T10:43:20;4.55;;;1.92;;
51495;SDS011;37572;52.094;4.870;2022-07-24T10:50:59;5.50;;;2.15;;
51495;SDS011;37572;52.094;4.870;2022-07-24T11:04:25;3.58;;;1.70;;
51495;SDS011;37572;52.094;4.870;2022-07-24T11:09:32;3.50;;;1.77;;
51495;SDS011;37572;52.094;4.870;2022-07-24T11:12:27;4.65;;;2.17;;
51495;SDS011;37572;52.094;4.870;2022-07-24T11:14:58;3.22;;;2.20;;
51495;SDS011;37572;52.094;4.870;2022-07-24T11:17:45;3.15;;;1.83;;
51495;SDS011;37572;52.094;4.870;2022-07-24T11:20:16;5.85;;;2.20;;
51495;SDS011;37572;52.094;4.870;2022-07-24T11:25:20;5.05;;;2.13;;
51495;SDS011;37572;52.094;4.870;2022-07-24T11:30:14;2.83;;;1.80;;
51495;SDS011;37572;52.094;4.870;2022-07-24T11:32:42;5.53;;;2.22;;
51495;SDS011;37572;52.094;4.870;2022-07-24T11:35:08;6.75;;;2.20;;
51495;SDS011;37572;52.094;4.870;2022-07-24T11:37:35;2.97;;;2.08;;
51495;SDS011;37572;52.094;4.870;2022-07-24T11:40:02;4.68;;;1.75;;
51495;SDS011;37572;52.094;4.870;2022-07-24T11:42:30;3.38;;;1.83;;
51495;SDS011;37572;52.094;4.870;2022-07-24T11:44:55;3.17;;;2.20;;
51495;SDS011;37572;52.094;4.870;2022-07-24T11:47:21;2.67;;;1.80;;
51495;SDS011;37572;52.094;4.870;2022-07-24T11:49:50;5.28;;;2.00;;
51495;SDS011;37572;52.094;4.870;2022-07-24T11:52:19;3.88;;;2.08;;
51495;SDS011;37572;52.094;4.870;2022-07-24T11:54:47;7.85;;;2.40;;
51495;SDS011;37572;52.094;4.870;2022-07-24T11:59:47;11.13;;;2.35;;
51495;SDS011;37572;52.094;4.870;2022-07-24T12:02:14;3.60;;;2.20;;
51495;SDS011;37572;52.094;4.870;2022-07-24T12:04:40;3.83;;;1.98;;
51495;SDS011;37572;52.094;4.870;2022-07-24T12:07:10;1.85;;;1.65;;
51495;SDS011;37572;52.094;4.870;2022-07-24T12:10:02;6.78;;;2.35;;
51495;SDS011;37572;52.094;4.870;2022-07-24T12:12:32;2.00;;;1.80;;
51495;SDS011;37572;52.094;4.870;2022-07-24T12:17:33;2.53;;;1.95;;
51495;SDS011;37572;52.094;4.870;2022-07-24T12:20:01;4.22;;;1.60;;
51495;SDS011;37572;52.094;4.870;2022-07-24T12:22:30;4.20;;;1.83;;
51495;SDS011;37572;52.094;4.870;2022-07-24T12:24:57;4.50;;;2.05;;
51495;SDS011;37572;52.094;4.870;2022-07-24T12:27:39;2.28;;;1.70;;
51495;SDS011;37572;52.094;4.870;2022-07-24T12:32:53;2.90;;;2.05;;
51495;SDS011;37572;52.094;4.870;2022-07-24T12:35:26;3.92;;;1.85;;
51495;SDS011;37572;52.094;4.870;2022-07-24T12:37:53;4.88;;;1.65;;
51495;SDS011;37572;52.094;4.870;2022-07-24T12:40:27;6.25;;;1.98;;
51495;SDS011;37572;52.094;4.870;2022-07-24T12:43:09;2.88;;;1.70;;
51495;SDS011;37572;52.094;4.870;2022-07-24T12:45:37;2.65;;;1.85;;
51495;SDS011;37572;52.094;4.870;2022-07-24T12:48:07;2.30;;;1.83;;
51495;SDS011;37572;52.094;4.870;2022-07-24T12:53:07;3.67;;;2.30;;
51495;SDS011;37572;52.094;4.870;2022-07-24T12:55:34;2.97;;;1.90;;
51495;SDS011;37572;52.094;4.870;2022-07-24T12:58:00;2.47;;;1.95;;
51495;SDS011;37572;52.094;4.870;2022-07-24T13:00:27;5.22;;;1.63;;
51495;SDS011;37572;52.094;4.870;2022-07-24T13:02:53;2.53;;;1.55;;
51495;SDS011;37572;52.094;4.870;2022-07-24T13:05:38;2.78;;;2.00;;
51495;SDS011;37572;52.094;4.870;2022-07-24T13:08:10;2.60;;;2.05;;
51495;SDS011;37572;52.094;4.870;2022-07-24T13:10:35;3.85;;;2.35;;
51495;SDS011;37572;52.094;4.870;2022-07-24T13:13:01;5.95;;;1.95;;
51495;SDS011;37572;52.094;4.870;2022-07-24T13:15:26;4.30;;;1.67;;
51495;SDS011;37572;52.094;4.870;2022-07-24T13:17:52;5.82;;;1.65;;
51495;SDS011;37572;52.094;4.870;2022-07-24T13:20:17;4.47;;;1.73;;
51495;SDS011;37572;52.094;4.870;2022-07-24T13:22:43;5.38;;;2.30;;
51495;SDS011;37572;52.094;4.870;2022-07-24T13:25:08;2.10;;;1.73;;
51495;SDS011;37572;52.094;4.870;2022-07-24T13:27:34;5.30;;;2.25;;
51495;SDS011;37572;52.094;4.870;2022-07-24T13:29:59;1.95;;;1.75;;
51495;SDS011;37572;52.094;4.870;2022-07-24T13:32:24;3.97;;;2.10;;
51495;SDS011;37572;52.094;4.870;2022-07-24T13:34:50;6.20;;;1.60;;
51495;SDS011;37572;52.094;4.870;2022-07-24T13:37:15;3.40;;;1.60;;
51495;SDS011;37572;52.094;4.870;2022-07-24T13:39:42;3.28;;;1.85;;
51495;SDS011;37572;52.094;4.870;2022-07-24T13:42:08;3.13;;;2.15;;
51495;SDS011;37572;52.094;4.870;2022-07-24T13:44:34;3.90;;;2.10;;
51495;SDS011;37572;52.094;4.870;2022-07-24T13:47:00;2.20;;;1.83;;
51495;SDS011;37572;52.094;4.870;2022-07-24T13:49:26;4.78;;;1.40;;
51495;SDS011;37572;52.094;4.870;2022-07-24T13:51:52;4.93;;;2.40;;
51495;SDS011;37572;52.094;4.870;2022-07-24T13:54:17;3.80;;;1.88;;
51495;SDS011;37572;52.094;4.870;2022-07-24T13:56:42;3.80;;;1.73;;
51495;SDS011;37572;52.094;4.870;2022-07-24T13:59:09;4.93;;;2.13;;
51495;SDS011;37572;52.094;4.870;2022-07-24T14:01:34;2.10;;;1.63;;
51495;SDS011;37572;52.094;4.870;2022-07-24T14:04:00;3.70;;;1.70;;
51495;SDS011;37572;52.094;4.870;2022-07-24T14:06:27;17.20;;;2.55;;
51495;SDS011;37572;52.094;4.870;2022-07-24T14:08:55;2.10;;;1.52;;
51495;SDS011;37572;52.094;4.870;2022-07-24T14:11:20;3.72;;;2.08;;
51495;SDS011;37572;52.094;4.870;2022-07-24T14:13:45;3.75;;;2.13;;
51495;SDS011;37572;52.094;4.870;2022-07-24T14:16:11;2.90;;;2.00;;
51495;SDS011;37572;52.094;4.870;2022-07-24T14:18:36;3.20;;;2.20;;
51495;SDS011;37572;52.094;4.870;2022-07-24T14:21:01;2.63;;;2.28;;
51495;SDS011;37572;52.094;4.870;2022-07-24T14:23:27;3.67;;;2.55;;
51495;SDS011;37572;52.094;4.870;2022-07-24T14:25:52;3.75;;;2.55;;
51495;SDS011;37572;52.094;4.870;2022-07-24T14:28:17;2.40;;;2.03;;
51495;SDS011;37572;52.094;4.870;2022-07-24T14:30:42;4.47;;;2.33;;
51495;SDS011;37572;52.094;4.870;2022-07-24T14:33:08;2.47;;;2.05;;
51495;SDS011;37572;52.094;4.870;2022-07-24T14:35:33;3.80;;;2.08;;
51495;SDS011;37572;52.094;4.870;2022-07-24T14:37:59;6.38;;;2.45;;
51495;SDS011;37572;52.094;4.870;2022-07-24T14:40:26;5.80;;;2.35;;
51495;SDS011;37572;52.094;4.870;2022-07-24T14:42:52;7.18;;;2.13;;
51495;SDS011;37572;52.094;4.870;2022-07-24T14:45:17;3.42;;;2.25;;
51495;SDS011;37572;52.094;4.870;2022-07-24T14:47:43;5.95;;;2.55;;
51495;SDS011;37572;52.094;4.870;2022-07-24T14:50:08;2.30;;;2.10;;
51495;SDS011;37572;52.094;4.870;2022-07-24T14:52:35;3.53;;;2.28;;
51495;SDS011;37572;52.094;4.870;2022-07-24T14:55:01;3.08;;;2.10;;
51495;SDS011;37572;52.094;4.870;2022-07-24T14:57:27;5.70;;;2.05;;
51495;SDS011;37572;52.094;4.870;2022-07-24T14:59:53;6.75;;;2.80;;
51495;SDS011;37572;52.094;4.870;2022-07-24T15:02:18;2.53;;;2.33;;
51495;SDS011;37572;52.094;4.870;2022-07-24T15:04:43;3.30;;;2.50;;
51495;SDS011;37572;52.094;4.870;2022-07-24T15:07:09;3.22;;;2.53;;
51495;SDS011;37572;52.094;4.870;2022-07-24T15:09:34;2.67;;;2.28;;
51495;SDS011;37572;52.094;4.870;2022-07-24T15:11:59;5.25;;;2.60;;
51495;SDS011;37572;52.094;4.870;2022-07-24T15:14:25;4.47;;;2.15;;
51495;SDS011;37572;52.094;4.870;2022-07-24T15:16:50;4.82;;;2.70;;